sensor_id;sensor_type;location;lat;lon;timestamp;pressure;altitude;pressure_sealevel;temperature;humidity
1616;BME280;801;47.982;7.810;2023-06-22T00:02:00;98557.34;;;23.24;100.00
1616;BME280;801;47.982;7.810;2023-06-22T00:04:27;98558.16;;;23.12;100.00
1616;BME280;801;47.982;7.810;2023-06-22T00:06:54;98560.44;;;23.10;100.00
1616;BME280;801;47.982;7.810;2023-06-22T00:09:20;98562.50;;;23.00;100.00
1616;BME280;801;47.982;7.810;2023-06-22T00:11:46;98557.56;;;22.94;100.00
1616;BME280;801;47.982;7.810;2023-06-22T00:14:14;98555.66;;;22.82;100.00
1616;BME280;801;47.982;7.810;2023-06-22T00:16:41;98555.66;;;22.82;100.00
1616;BME280;801;47.982;7.810;2023-06-22T00:19:08;98554.25;;;22.76;100.00
1616;BME280;801;47.982;7.810;2023-06-22T00:21:36;98547.06;;;22.71;100.00
1616;BME280;801;47.982;7.810;2023-06-22T00:24:04;98554.03;;;22.69;100.00
1616;BME280;801;47.982;7.810;2023-06-22T00:26:30;98549.69;;;22.68;100.00
1616;BME280;801;47.982;7.810;2023-06-22T00:28:57;98544.00;;;22.73;100.00
1616;BME280;801;47.982;7.810;2023-06-22T00:31:25;98548.66;;;22.60;100.00
1616;BME280;801;47.982;7.810;2023-06-22T00:33:51;98548.09;;;22.67;100.00
1616;BME280;801;47.982;7.810;2023-06-22T00:36:18;98542.28;;;22.56;100.00
1616;BME280;801;47.982;7.810;2023-06-22T00:38:44;98552.31;;;22.64;100.00
1616;BME280;801;47.982;7.810;2023-06-22T00:41:11;98540.22;;;22.65;100.00
1616;BME280;801;47.982;7.810;2023-06-22T00:43:37;98558.69;;;22.56;100.00
1616;BME280;801;47.982;7.810;2023-06-22T00:46:04;98565.66;;;22.53;100.00
1616;BME280;801;47.982;7.810;2023-06-22T00:48:32;98556.97;;;22.51;100.00
1616;BME280;801;47.982;7.810;2023-06-22T00:50:59;98558.56;;;22.52;100.00
1616;BME280;801;47.982;7.810;2023-06-22T00:53:25;98560.03;;;22.37;100.00
1616;BME280;801;47.982;7.810;2023-06-22T00:55:52;98567.19;;;22.30;100.00
1616;BME280;801;47.982;7.810;2023-06-22T00:58:19;98572.00;;;22.33;100.00
1616;BME280;801;47.982;7.810;2023-06-22T01:00:47;98555.31;;;22.26;100.00
1616;BME280;801;47.982;7.810;2023-06-22T01:03:14;98549.47;;;22.15;100.00
1616;BME280;801;47.982;7.810;2023-06-22T01:05:43;98561.53;;;22.14;100.00
1616;BME280;801;47.982;7.810;2023-06-22T01:08:28;98584.44;;;22.09;100.00
1616;BME280;801;47.982;7.810;2023-06-22T01:11:01;98563.72;;;22.08;100.00
1616;BME280;801;47.982;7.810;2023-06-22T01:13:35;98539.34;;;21.94;100.00
1616;BME280;801;47.982;7.810;2023-06-22T01:16:08;98542.38;;;21.81;100.00
1616;BME280;801;47.982;7.810;2023-06-22T01:18:38;98549.03;;;21.92;100.00
1616;BME280;801;47.982;7.810;2023-06-22T01:21:12;98552.56;;;21.92;100.00
1616;BME280;801;47.982;7.810;2023-06-22T01:23:51;98539.25;;;21.91;100.00
1616;BME280;801;47.982;7.810;2023-06-22T01:26:23;98537.38;;;21.83;100.00
1616;BME280;801;47.982;7.810;2023-06-22T01:28:55;98537.53;;;21.86;100.00
1616;BME280;801;47.982;7.810;2023-06-22T01:31:25;98538.09;;;21.92;100.00
1616;BME280;801;47.982;7.810;2023-06-22T01:33:54;98530.56;;;21.89;100.00
1616;BME280;801;47.982;7.810;2023-06-22T01:36:22;98514.38;;;21.84;100.00
1616;BME280;801;47.982;7.810;2023-06-22T01:38:50;98517.38;;;21.70;100.00
1616;BME280;801;47.982;7.810;2023-06-22T01:41:19;98524.06;;;21.60;100.00
1616;BME280;801;47.982;7.810;2023-06-22T01:43:46;98514.41;;;21.63;100.00
1616;BME280;801;47.982;7.810;2023-06-22T01:46:15;98516.81;;;21.64;100.00
1616;BME280;801;47.982;7.810;2023-06-22T01:48:44;98521.47;;;21.64;100.00
1616;BME280;801;47.982;7.810;2023-06-22T01:51:11;98513.13;;;21.60;100.00
1616;BME280;801;47.982;7.810;2023-06-22T01:53:38;98505.94;;;21.55;100.00
1616;BME280;801;47.982;7.810;2023-06-22T01:56:04;98493.59;;;21.49;100.00
1616;BME280;801;47.982;7.810;2023-06-22T01:58:32;98490.31;;;21.35;100.00
1616;BME280;801;47.982;7.810;2023-06-22T02:01:06;98492.72;;;21.36;100.00
1616;BME280;801;47.982;7.810;2023-06-22T02:03:38;98492.72;;;21.36;100.00
1616;BME280;801;47.982;7.810;2023-06-22T02:06:15;98495.91;;;21.39;100.00
1616;BME280;801;47.982;7.810;2023-06-22T02:08:48;98501.00;;;21.49;100.00
1616;BME280;801;47.982;7.810;2023-06-22T02:11:17;98495.00;;;21.55;100.00
1616;BME280;801;47.982;7.810;2023-06-22T02:13:45;98489.16;;;21.45;100.00
1616;BME280;801;47.982;7.810;2023-06-22T02:16:13;98488.22;;;21.41;100.00
1616;BME280;801;47.982;7.810;2023-06-22T02:18:46;98490.31;;;21.14;100.00
1616;BME280;801;47.982;7.810;2023-06-22T02:21:12;98481.94;;;21.19;100.00
1616;BME280;801;47.982;7.810;2023-06-22T02:23:39;98476.19;;;21.12;100.00
1616;BME280;801;47.982;7.810;2023-06-22T02:26:05;98472.66;;;21.11;100.00
1616;BME280;801;47.982;7.810;2023-06-22T02:28:32;98478.84;;;21.21;100.00
1616;BME280;801;47.982;7.810;2023-06-22T02:30:58;98479.38;;;21.14;100.00
1616;BME280;801;47.982;7.810;2023-06-22T02:33:25;98460.94;;;21.11;100.00
1616;BME280;801;47.982;7.810;2023-06-22T02:35:54;98457.69;;;20.97;100.00
1616;BME280;801;47.982;7.810;2023-06-22T02:38:20;98459.25;;;20.98;100.00
1616;BME280;801;47.982;7.810;2023-06-22T02:40:49;98456.22;;;20.99;100.00
1616;BME280;801;47.982;7.810;2023-06-22T02:43:16;98451.59;;;21.12;100.00
1616;BME280;801;47.982;7.810;2023-06-22T02:45:42;98458.47;;;21.18;100.00
1616;BME280;801;47.982;7.810;2023-06-22T02:48:09;98464.13;;;21.13;100.00
1616;BME280;801;47.982;7.810;2023-06-22T02:50:36;98467.00;;;21.17;100.00
1616;BME280;801;47.982;7.810;2023-06-22T02:53:04;98460.47;;;21.09;100.00
1616;BME280;801;47.982;7.810;2023-06-22T02:55:31;98456.25;;;21.11;100.00
1616;BME280;801;47.982;7.810;2023-06-22T02:57:57;98457.88;;;21.12;100.00
1616;BME280;801;47.982;7.810;2023-06-22T03:00:25;98459.41;;;21.22;100.00
1616;BME280;801;47.982;7.810;2023-06-22T03:02:56;98451.66;;;21.24;100.00
1616;BME280;801;47.982;7.810;2023-06-22T03:05:23;98454.41;;;21.24;100.00
1616;BME280;801;47.982;7.810;2023-06-22T03:07:49;98450.25;;;21.18;100.00
1616;BME280;801;47.982;7.810;2023-06-22T03:10:17;98450.94;;;21.15;100.00
1616;BME280;801;47.982;7.810;2023-06-22T03:12:44;98456.63;;;21.10;100.00
1616;BME280;801;47.982;7.810;2023-06-22T03:15:12;98458.19;;;21.11;100.00
1616;BME280;801;47.982;7.810;2023-06-22T03:17:39;98458.19;;;21.11;100.00
1616;BME280;801;47.982;7.810;2023-06-22T03:20:07;98451.91;;;20.89;100.00
1616;BME280;801;47.982;7.810;2023-06-22T03:22:36;98453.00;;;20.97;100.00
1616;BME280;801;47.982;7.810;2023-06-22T03:25:04;98447.75;;;20.92;100.00
1616;BME280;801;47.982;7.810;2023-06-22T03:27:36;98442.13;;;20.88;100.00
1616;BME280;801;47.982;7.810;2023-06-22T03:30:04;98437.16;;;20.90;100.00
1616;BME280;801;47.982;7.810;2023-06-22T03:32:30;98439.56;;;20.92;100.00
1616;BME280;801;47.982;7.810;2023-06-22T03:34:57;98440.13;;;20.77;100.00
1616;BME280;801;47.982;7.810;2023-06-22T03:37:24;98438.53;;;20.76;100.00
1616;BME280;801;47.982;7.810;2023-06-22T03:39:50;98441.41;;;20.79;100.00
1616;BME280;801;47.982;7.810;2023-06-22T03:42:17;98441.66;;;20.86;100.00
1616;BME280;801;47.982;7.810;2023-06-22T03:44:45;98437.47;;;20.89;100.00
1616;BME280;801;47.982;7.810;2023-06-22T03:47:11;98442.41;;;20.96;100.00
1616;BME280;801;47.982;7.810;2023-06-22T03:49:38;98447.41;;;20.93;100.00
1616;BME280;801;47.982;7.810;2023-06-22T03:52:05;98448.53;;;20.92;100.00
1616;BME280;801;47.982;7.810;2023-06-22T03:54:31;98441.28;;;20.97;100.00
1616;BME280;801;47.982;7.810;2023-06-22T03:56:58;98442.09;;;20.97;100.00
1616;BME280;801;47.982;7.810;2023-06-22T03:59:25;98435.25;;;20.82;100.00
1616;BME280;801;47.982;7.810;2023-06-22T04:01:53;98439.94;;;20.82;100.00
1616;BME280;801;47.982;7.810;2023-06-22T04:04:19;98451.97;;;20.81;100.00
1616;BME280;801;47.982;7.810;2023-06-22T04:06:46;98445.06;;;20.83;100.00
1616;BME280;801;47.982;7.810;2023-06-22T04:09:13;98445.91;;;20.75;100.00
1616;BME280;801;47.982;7.810;2023-06-22T04:11:39;98450.72;;;20.78;100.00
1616;BME280;801;47.982;7.810;2023-06-22T04:14:06;98455.53;;;20.81;100.00
1616;BME280;801;47.982;7.810;2023-06-22T04:16:32;98458.91;;;20.78;100.00
1616;BME280;801;47.982;7.810;2023-06-22T04:19:00;98453.22;;;20.53;100.00
1616;BME280;801;47.982;7.810;2023-06-22T04:21:27;98456.44;;;20.56;100.00
1616;BME280;801;47.982;7.810;2023-06-22T04:23:53;98451.31;;;20.54;100.00
1616;BME280;801;47.982;7.810;2023-06-22T04:26:20;98450.19;;;20.55;100.00
1616;BME280;801;47.982;7.810;2023-06-22T04:28:47;98449.38;;;20.55;100.00
1616;BME280;801;47.982;7.810;2023-06-22T04:31:16;98444.06;;;20.58;100.00
1616;BME280;801;47.982;7.810;2023-06-22T04:33:43;98458.38;;;20.55;100.00
1616;BME280;801;47.982;7.810;2023-06-22T04:36:11;98451.53;;;20.40;100.00
1616;BME280;801;47.982;7.810;2023-06-22T04:38:38;98449.44;;;20.46;100.00
1616;BME280;801;47.982;7.810;2023-06-22T04:41:05;98459.19;;;20.47;100.00
1616;BME280;801;47.982;7.810;2023-06-22T04:43:31;98465.75;;;20.63;100.00
1616;BME280;801;47.982;7.810;2023-06-22T04:45:58;98467.09;;;20.78;100.00
1616;BME280;801;47.982;7.810;2023-06-22T04:48:28;98462.84;;;20.89;100.00
1616;BME280;801;47.982;7.810;2023-06-22T04:50:57;98455.13;;;20.91;100.00
1616;BME280;801;47.982;7.810;2023-06-22T04:53:30;98458.59;;;21.01;100.00
1616;BME280;801;47.982;7.810;2023-06-22T04:55:57;98458.72;;;21.04;100.00
1616;BME280;801;47.982;7.810;2023-06-22T04:58:23;98456.47;;;21.06;100.00
1616;BME280;801;47.982;7.810;2023-06-22T05:00:53;98451.16;;;21.10;100.00
1616;BME280;801;47.982;7.810;2023-06-22T05:03:22;98451.41;;;21.17;100.00
1616;BME280;801;47.982;7.810;2023-06-22T05:05:51;98444.16;;;21.21;100.00
1616;BME280;801;47.982;7.810;2023-06-22T05:08:17;98448.41;;;21.31;100.00
1616;BME280;801;47.982;7.810;2023-06-22T05:10:45;98446.25;;;21.36;100.00
1616;BME280;801;47.982;7.810;2023-06-22T05:13:12;98440.13;;;21.40;100.00
1616;BME280;801;47.982;7.810;2023-06-22T05:15:38;98439.47;;;21.43;100.00
1616;BME280;801;47.982;7.810;2023-06-22T05:18:05;98433.13;;;21.51;100.00
1616;BME280;801;47.982;7.810;2023-06-22T05:20:31;98444.88;;;21.51;100.00
1616;BME280;801;47.982;7.810;2023-06-22T05:22:59;98430.97;;;21.56;100.00
1616;BME280;801;47.982;7.810;2023-06-22T05:25:25;98431.13;;;21.60;100.00
1616;BME280;801;47.982;7.810;2023-06-22T05:27:56;98451.81;;;21.49;100.00
1616;BME280;801;47.982;7.810;2023-06-22T05:30:23;98443.06;;;21.55;100.00
1616;BME280;801;47.982;7.810;2023-06-22T05:32:49;98441.81;;;21.65;100.00
1616;BME280;801;47.982;7.810;2023-06-22T05:35:17;98435.66;;;21.56;100.00
1616;BME280;801;47.982;7.810;2023-06-22T05:37:44;98426.25;;;21.66;100.00
1616;BME280;801;47.982;7.810;2023-06-22T05:40:12;98428.63;;;21.67;100.00
1616;BME280;801;47.982;7.810;2023-06-22T05:42:38;98432.69;;;21.61;100.00
1616;BME280;801;47.982;7.810;2023-06-22T05:45:07;98429.78;;;21.66;100.00
1616;BME280;801;47.982;7.810;2023-06-22T05:47:33;98432.97;;;21.68;100.00
1616;BME280;801;47.982;7.810;2023-06-22T05:50:00;98421.59;;;21.79;100.00
1616;BME280;801;47.982;7.810;2023-06-22T05:52:26;98411.00;;;21.89;100.00
1616;BME280;801;47.982;7.810;2023-06-22T05:54:52;98421.16;;;21.89;100.00
1616;BME280;801;47.982;7.810;2023-06-22T05:57:19;98418.53;;;21.92;100.00
1616;BME280;801;47.982;7.810;2023-06-22T05:59:47;98417.16;;;21.98;100.00
1616;BME280;801;47.982;7.810;2023-06-22T06:02:14;98431.63;;;21.87;100.00
1616;BME280;801;47.982;7.810;2023-06-22T06:04:41;98448.56;;;21.68;100.00
1616;BME280;801;47.982;7.810;2023-06-22T06:07:07;98445.50;;;21.69;100.00
1616;BME280;801;47.982;7.810;2023-06-22T06:09:34;98460.84;;;21.62;100.00
1616;BME280;801;47.982;7.810;2023-06-22T06:12:00;98458.84;;;21.50;100.00
1616;BME280;801;47.982;7.810;2023-06-22T06:14:28;98449.63;;;21.42;100.00
1616;BME280;801;47.982;7.810;2023-06-22T06:16:54;98465.25;;;21.54;100.00
1616;BME280;801;47.982;7.810;2023-06-22T06:19:22;98471.81;;;21.41;100.00
1616;BME280;801;47.982;7.810;2023-06-22T06:21:48;98463.78;;;21.35;100.00
1616;BME280;801;47.982;7.810;2023-06-22T06:24:15;98457.19;;;21.36;100.00
1616;BME280;801;47.982;7.810;2023-06-22T06:26:42;98470.72;;;21.54;100.00
1616;BME280;801;47.982;7.810;2023-06-22T06:29:08;98471.66;;;21.58;100.00
1616;BME280;801;47.982;7.810;2023-06-22T06:31:34;98474.22;;;21.75;100.00
1616;BME280;801;47.982;7.810;2023-06-22T06:34:01;98487.22;;;21.79;100.00
1616;BME280;801;47.982;7.810;2023-06-22T06:36:29;98480.88;;;21.99;100.00
1616;BME280;801;47.982;7.810;2023-06-22T06:38:55;98492.38;;;21.92;100.00
1616;BME280;801;47.982;7.810;2023-06-22T06:41:22;98508.47;;;21.94;100.00
1616;BME280;801;47.982;7.810;2023-06-22T06:43:48;98507.22;;;21.91;100.00
1616;BME280;801;47.982;7.810;2023-06-22T06:46:15;98532.44;;;22.09;100.00
1616;BME280;801;47.982;7.810;2023-06-22T06:48:41;98543.19;;;22.14;100.00
1616;BME280;801;47.982;7.810;2023-06-22T06:51:08;98551.75;;;22.13;100.00
1616;BME280;801;47.982;7.810;2023-06-22T06:53:36;98582.72;;;22.05;100.00
1616;BME280;801;47.982;7.810;2023-06-22T06:56:03;98576.31;;;22.22;100.00
1616;BME280;801;47.982;7.810;2023-06-22T06:58:30;98572.91;;;22.25;100.00
1616;BME280;801;47.982;7.810;2023-06-22T07:00:58;98550.13;;;22.33;100.00
1616;BME280;801;47.982;7.810;2023-06-22T07:03:25;98525.97;;;22.59;100.00
1616;BME280;801;47.982;7.810;2023-06-22T07:05:52;98536.44;;;22.70;100.00
1616;BME280;801;47.982;7.810;2023-06-22T07:08:18;98532.13;;;22.81;100.00
1616;BME280;801;47.982;7.810;2023-06-22T07:10:46;98523.66;;;22.98;100.00
1616;BME280;801;47.982;7.810;2023-06-22T07:13:12;98531.09;;;23.23;100.00
1616;BME280;801;47.982;7.810;2023-06-22T07:15:39;98520.31;;;23.42;100.00
1616;BME280;801;47.982;7.810;2023-06-22T07:18:05;98521.31;;;23.37;100.00
1616;BME280;801;47.982;7.810;2023-06-22T07:20:32;98549.00;;;23.32;100.00
1616;BME280;801;47.982;7.810;2023-06-22T07:22:58;98542.84;;;23.23;100.00
1616;BME280;801;47.982;7.810;2023-06-22T07:25:25;98535.81;;;23.50;100.00
1616;BME280;801;47.982;7.810;2023-06-22T07:28:00;98525.84;;;23.58;100.00
1616;BME280;801;47.982;7.810;2023-06-22T07:30:27;98541.19;;;23.47;100.00
1616;BME280;801;47.982;7.810;2023-06-22T07:32:54;98569.28;;;23.44;100.00
1616;BME280;801;47.982;7.810;2023-06-22T07:35:21;98573.66;;;23.32;100.00
1616;BME280;801;47.982;7.810;2023-06-22T07:37:47;98559.63;;;23.34;100.00
1616;BME280;801;47.982;7.810;2023-06-22T07:40:13;98535.28;;;23.32;100.00
1616;BME280;801;47.982;7.810;2023-06-22T07:42:40;98509.94;;;23.23;100.00
1616;BME280;801;47.982;7.810;2023-06-22T07:45:08;98492.13;;;23.17;100.00
1616;BME280;801;47.982;7.810;2023-06-22T07:47:35;98506.03;;;23.36;100.00
1616;BME280;801;47.982;7.810;2023-06-22T07:50:02;98514.97;;;23.61;100.00
1616;BME280;801;47.982;7.810;2023-06-22T07:52:30;98508.31;;;23.75;100.00
1616;BME280;801;47.982;7.810;2023-06-22T07:54:57;98510.50;;;23.69;100.00
1616;BME280;801;47.982;7.810;2023-06-22T07:57:24;98513.13;;;23.78;100.00
1616;BME280;801;47.982;7.810;2023-06-22T07:59:57;98507.22;;;23.92;100.00
1616;BME280;801;47.982;7.810;2023-06-22T08:02:25;98520.50;;;23.90;100.00
1616;BME280;801;47.982;7.810;2023-06-22T08:04:51;98520.63;;;23.81;100.00
1616;BME280;801;47.982;7.810;2023-06-22T08:07:18;98528.47;;;23.95;100.00
1616;BME280;801;47.982;7.810;2023-06-22T08:09:46;98525.13;;;24.17;100.00
1616;BME280;801;47.982;7.810;2023-06-22T08:12:13;98533.97;;;24.11;100.00
1616;BME280;801;47.982;7.810;2023-06-22T08:14:42;98512.47;;;24.29;100.00
1616;BME280;801;47.982;7.810;2023-06-22T08:17:08;98497.38;;;24.51;100.00
1616;BME280;801;47.982;7.810;2023-06-22T08:19:36;98487.34;;;24.74;100.00
1616;BME280;801;47.982;7.810;2023-06-22T08:22:04;98490.13;;;24.94;100.00
1616;BME280;801;47.982;7.810;2023-06-22T08:24:30;98493.41;;;24.99;100.00
1616;BME280;801;47.982;7.810;2023-06-22T08:26:57;98504.31;;;24.96;100.00
1616;BME280;801;47.982;7.810;2023-06-22T08:29:23;98505.91;;;24.97;100.00
1616;BME280;801;47.982;7.810;2023-06-22T08:31:50;98484.72;;;25.33;100.00
1616;BME280;801;47.982;7.810;2023-06-22T08:34:16;98470.16;;;25.52;100.00
1616;BME280;801;47.982;7.810;2023-06-22T08:36:47;98471.47;;;25.38;100.00
1616;BME280;801;47.982;7.810;2023-06-22T08:39:16;98451.66;;;25.48;100.00
1616;BME280;801;47.982;7.810;2023-06-22T08:41:43;98439.41;;;25.65;100.00
1616;BME280;801;47.982;7.810;2023-06-22T08:44:10;98433.22;;;25.92;100.00
1616;BME280;801;47.982;7.810;2023-06-22T08:46:36;98429.28;;;26.16;100.00
1616;BME280;801;47.982;7.810;2023-06-22T08:49:04;98436.03;;;26.18;100.00
1616;BME280;801;47.982;7.810;2023-06-22T08:51:31;98426.16;;;26.40;100.00
1616;BME280;801;47.982;7.810;2023-06-22T08:53:59;98419.53;;;26.45;100.00
1616;BME280;801;47.982;7.810;2023-06-22T08:56:25;98411.19;;;26.64;100.00
1616;BME280;801;47.982;7.810;2023-06-22T08:58:52;98407.91;;;26.82;100.00
1616;BME280;801;47.982;7.810;2023-06-22T09:01:18;98387.84;;;26.85;100.00
1616;BME280;801;47.982;7.810;2023-06-22T09:03:45;98379.53;;;26.81;100.00
1616;BME280;801;47.982;7.810;2023-06-22T09:06:19;98412.56;;;26.78;100.00
1616;BME280;801;47.982;7.810;2023-06-22T09:08:45;98410.22;;;26.80;100.00
1616;BME280;801;47.982;7.810;2023-06-22T09:11:13;98403.94;;;26.79;100.00
1616;BME280;801;47.982;7.810;2023-06-22T09:13:40;98395.50;;;26.99;100.00
1616;BME280;801;47.982;7.810;2023-06-22T09:16:06;98393.38;;;27.19;100.00
1616;BME280;801;47.982;7.810;2023-06-22T09:18:33;98388.03;;;27.29;100.00
1616;BME280;801;47.982;7.810;2023-06-22T09:21:01;98386.53;;;27.39;100.00
1616;BME280;801;47.982;7.810;2023-06-22T09:23:27;98383.72;;;27.32;100.00
1616;BME280;801;47.982;7.810;2023-06-22T09:25:54;98393.25;;;27.79;100.00
1616;BME280;801;47.982;7.810;2023-06-22T09:28:22;98383.91;;;27.87;100.00
1616;BME280;801;47.982;7.810;2023-06-22T09:30:48;98380.72;;;27.44;100.00
1616;BME280;801;47.982;7.810;2023-06-22T09:33:15;98370.28;;;27.68;100.00
1616;BME280;801;47.982;7.810;2023-06-22T09:35:41;98363.41;;;27.88;100.00
1616;BME280;801;47.982;7.810;2023-06-22T09:38:08;98366.56;;;27.90;100.00
1616;BME280;801;47.982;7.810;2023-06-22T09:40:34;98372.91;;;27.91;100.00
1616;BME280;801;47.982;7.810;2023-06-22T09:43:05;98381.69;;;28.04;100.00
1616;BME280;801;47.982;7.810;2023-06-22T09:45:33;98392.03;;;28.18;100.00
1616;BME280;801;47.982;7.810;2023-06-22T09:47:59;98385.03;;;28.27;100.00
1616;BME280;801;47.982;7.810;2023-06-22T09:50:26;98362.44;;;28.14;100.00
1616;BME280;801;47.982;7.810;2023-06-22T09:52:52;98362.56;;;28.32;100.00
1616;BME280;801;47.982;7.810;2023-06-22T09:55:20;98351.72;;;28.61;100.00
1616;BME280;801;47.982;7.810;2023-06-22T09:57:46;98360.06;;;28.75;100.00
1616;BME280;801;47.982;7.810;2023-06-22T10:00:14;98366.75;;;28.71;100.00
1616;BME280;801;47.982;7.810;2023-06-22T10:02:42;98365.97;;;28.67;100.00
1616;BME280;801;47.982;7.810;2023-06-22T10:05:09;98355.81;;;28.92;100.00
1616;BME280;801;47.982;7.810;2023-06-22T10:07:35;98350.31;;;28.96;98.86
1616;BME280;801;47.982;7.810;2023-06-22T10:10:06;98336.56;;;29.21;100.00
1616;BME280;801;47.982;7.810;2023-06-22T10:12:32;98327.53;;;29.38;99.94
1616;BME280;801;47.982;7.810;2023-06-22T10:14:59;98328.72;;;29.55;99.29
1616;BME280;801;47.982;7.810;2023-06-22T10:17:25;98327.97;;;29.69;96.16
1616;BME280;801;47.982;7.810;2023-06-22T10:19:53;98336.66;;;29.64;94.67
1616;BME280;801;47.982;7.810;2023-06-22T10:22:20;98328.38;;;29.82;93.42
1616;BME280;801;47.982;7.810;2023-06-22T10:24:46;98330.38;;;29.85;92.88
1616;BME280;801;47.982;7.810;2023-06-22T10:27:13;98333.09;;;29.56;91.14
1616;BME280;801;47.982;7.810;2023-06-22T10:29:39;98349.69;;;29.67;92.00
1616;BME280;801;47.982;7.810;2023-06-22T10:32:07;98354.47;;;29.74;94.45
1616;BME280;801;47.982;7.810;2023-06-22T10:34:33;98376.19;;;29.50;97.85
1616;BME280;801;47.982;7.810;2023-06-22T10:37:01;98380.06;;;29.21;100.00
1616;BME280;801;47.982;7.810;2023-06-22T10:39:28;98386.19;;;28.89;100.00
1616;BME280;801;47.982;7.810;2023-06-22T10:41:54;98389.75;;;28.86;100.00
1616;BME280;801;47.982;7.810;2023-06-22T10:44:21;98406.28;;;28.75;100.00
1616;BME280;801;47.982;7.810;2023-06-22T10:46:48;98429.50;;;28.63;100.00
1616;BME280;801;47.982;7.810;2023-06-22T10:49:14;98432.56;;;28.51;100.00
1616;BME280;801;47.982;7.810;2023-06-22T10:51:41;98428.66;;;28.52;100.00
1616;BME280;801;47.982;7.810;2023-06-22T10:54:09;98431.88;;;28.61;100.00
1616;BME280;801;47.982;7.810;2023-06-22T10:56:35;98439.22;;;29.02;100.00
1616;BME280;801;47.982;7.810;2023-06-22T10:59:02;98423.41;;;29.02;100.00
1616;BME280;801;47.982;7.810;2023-06-22T11:01:28;98421.28;;;28.77;100.00
1616;BME280;801;47.982;7.810;2023-06-22T11:03:56;98406.72;;;28.84;100.00
1616;BME280;801;47.982;7.810;2023-06-22T11:06:22;98416.13;;;28.72;100.00
1616;BME280;801;47.982;7.810;2023-06-22T11:08:49;98409.94;;;28.90;100.00
1616;BME280;801;47.982;7.810;2023-06-22T11:11:17;98403.50;;;28.71;100.00
1616;BME280;801;47.982;7.810;2023-06-22T11:13:44;98398.50;;;29.02;100.00
1616;BME280;801;47.982;7.810;2023-06-22T11:16:10;98417.25;;;29.34;100.00
1616;BME280;801;47.982;7.810;2023-06-22T11:18:37;98431.13;;;29.41;100.00
1616;BME280;801;47.982;7.810;2023-06-22T11:21:03;98449.56;;;29.15;100.00
1616;BME280;801;47.982;7.810;2023-06-22T11:23:30;98465.31;;;29.08;100.00
1616;BME280;801;47.982;7.810;2023-06-22T11:25:56;98464.97;;;29.09;100.00
1616;BME280;801;47.982;7.810;2023-06-22T11:28:24;98458.28;;;29.17;100.00
1616;BME280;801;47.982;7.810;2023-06-22T11:30:51;98453.59;;;29.29;100.00
1616;BME280;801;47.982;7.810;2023-06-22T11:33:18;98442.50;;;29.22;100.00
1616;BME280;801;47.982;7.810;2023-06-22T11:35:44;98452.72;;;29.10;100.00
1616;BME280;801;47.982;7.810;2023-06-22T11:38:11;98460.72;;;29.33;100.00
1616;BME280;801;47.982;7.810;2023-06-22T11:40:37;98461.06;;;29.25;100.00
1616;BME280;801;47.982;7.810;2023-06-22T11:43:03;98449.16;;;29.13;100.00
1616;BME280;801;47.982;7.810;2023-06-22T11:45:31;98449.56;;;29.15;100.00
1616;BME280;801;47.982;7.810;2023-06-22T11:47:58;98437.22;;;28.98;100.00
1616;BME280;801;47.982;7.810;2023-06-22T11:50:24;98426.16;;;28.98;100.00
1616;BME280;801;47.982;7.810;2023-06-22T11:52:51;98417.97;;;29.09;100.00
1616;BME280;801;47.982;7.810;2023-06-22T11:55:18;98401.81;;;29.33;100.00
1616;BME280;801;47.982;7.810;2023-06-22T11:57:55;98392.75;;;29.47;100.00
1616;BME280;801;47.982;7.810;2023-06-22T12:00:23;98403.88;;;29.54;100.00
1616;BME280;801;47.982;7.810;2023-06-22T12:02:51;98399.13;;;29.54;100.00
1616;BME280;801;47.982;7.810;2023-06-22T12:05:19;98395.25;;;29.70;100.00
1616;BME280;801;47.982;7.810;2023-06-22T12:07:46;98409.50;;;29.86;100.00
1616;BME280;801;47.982;7.810;2023-06-22T12:10:12;98415.81;;;29.83;100.00
1616;BME280;801;47.982;7.810;2023-06-22T12:12:39;98425.25;;;29.68;100.00
1616;BME280;801;47.982;7.810;2023-06-22T12:15:06;98422.78;;;29.30;100.00
1616;BME280;801;47.982;7.810;2023-06-22T12:17:33;98436.56;;;29.20;100.00
1616;BME280;801;47.982;7.810;2023-06-22T12:20:02;98471.25;;;29.06;100.00
1616;BME280;801;47.982;7.810;2023-06-22T12:22:30;98487.34;;;28.93;100.00
1616;BME280;801;47.982;7.810;2023-06-22T12:24:57;98489.94;;;28.65;100.00
1616;BME280;801;47.982;7.810;2023-06-22T12:27:23;98499.50;;;28.30;100.00
1616;BME280;801;47.982;7.810;2023-06-22T12:29:49;98488.75;;;28.21;100.00
1616;BME280;801;47.982;7.810;2023-06-22T12:32:16;98488.97;;;28.02;100.00
1616;BME280;801;47.982;7.810;2023-06-22T12:34:43;98490.63;;;28.10;100.00
1616;BME280;801;47.982;7.810;2023-06-22T12:37:11;98504.41;;;28.47;100.00
1616;BME280;801;47.982;7.810;2023-06-22T12:39:40;98493.59;;;27.90;100.00
1616;BME280;801;47.982;7.810;2023-06-22T12:42:07;98494.59;;;28.12;100.00
1616;BME280;801;47.982;7.810;2023-06-22T12:44:34;98492.13;;;28.04;100.00
1616;BME280;801;47.982;7.810;2023-06-22T12:47:01;98491.16;;;28.26;100.00
1616;BME280;801;47.982;7.810;2023-06-22T12:49:27;98491.88;;;28.16;100.00
1616;BME280;801;47.982;7.810;2023-06-22T12:51:53;98499.03;;;28.24;100.00
1616;BME280;801;47.982;7.810;2023-06-22T12:54:21;98505.38;;;28.25;100.00
1616;BME280;801;47.982;7.810;2023-06-22T12:56:49;98504.31;;;27.99;100.00
1616;BME280;801;47.982;7.810;2023-06-22T12:59:16;98497.84;;;28.22;100.00
1616;BME280;801;47.982;7.810;2023-06-22T13:01:43;98500.16;;;28.16;100.00
1616;BME280;801;47.982;7.810;2023-06-22T13:04:10;98505.44;;;28.32;100.00
1616;BME280;801;47.982;7.810;2023-06-22T13:06:39;98490.00;;;28.27;100.00
1616;BME280;801;47.982;7.810;2023-06-22T13:09:06;98500.94;;;28.17;100.00
1616;BME280;801;47.982;7.810;2023-06-22T13:11:34;98502.56;;;28.21;100.00
1616;BME280;801;47.982;7.810;2023-06-22T13:14:00;98491.47;;;28.14;100.00
1616;BME280;801;47.982;7.810;2023-06-22T13:16:26;98480.97;;;27.89;100.00
1616;BME280;801;47.982;7.810;2023-06-22T13:18:53;98477.50;;;27.66;100.00
1616;BME280;801;47.982;7.810;2023-06-22T13:21:19;98474.59;;;27.51;100.00
1616;BME280;801;47.982;7.810;2023-06-22T13:23:46;98480.41;;;27.43;100.00